Lukojanov, Russia
Current Conditions -  °F | °C
As of 12:00 PM on Thursday 23 Oct 2014 (Local Time) from UWGG Reporting Station
Light Snow Light Snow  
Wind Chill:   Ceiling: 1800
Heat Index: 16°   Visibility: 5mi
Dew Point:   Wind: 11mph
Humidity: 73%   Direction: 300°WNW
Pressure: 30.06"   Gusts: NA
Location:  55.04°N, 44.49°E
Report Text: UWGG 230900Z 30005MPS 8000 -SN OVC018 M09/M13 Q1018 NOSIG36450239 RMK QFE756
Loading
Personal Weather Stations






























Interactive Weather Map
Tropical Storm Tracking
New forecast layout! Learn more

10-Day Weather Forecast

Advertisements
Track Severe Weather on mobile